Time;durP1;ratioP1;P1;durP2;ratioP2;P2;SDS_P1;SDS_P2;PMS_P1;PMS_P2;Temp;Humidity;BMP_temperature;BMP_pressure;BME280_temperature;BME280_humidity;BME280_pressure;Samples;Min_cycle;Max_cycle;Signal;HPM_P1;HPM_P2
2022/02/23 00:02:11;;;;;;;0.00;0.00;;;;;;;4.66;82.32;101357.13;4936529;28;20035;-73
2022/02/23 00:04:37;;;;;;;0.00;0.00;;;;;;;4.66;81.36;101357.94;4935804;29;20031;-73
2022/02/23 00:07:03;;;;;;;0.00;0.00;;;;;;;4.67;82.38;101356.91;4941075;29;20035;-73
2022/02/23 00:09:28;;;;;;;0.00;0.00;;;;;;;4.69;82.41;101357.53;4931373;29;20055;-73
2022/02/23 00:11:54;;;;;;;0.00;0.00;;;;;;;4.70;81.83;101359.22;4939085;29;20051;-73
2022/02/23 00:14:19;;;;;;;0.00;0.00;;;;;;;4.67;81.28;101354.19;4939351;29;20023;-74
2022/02/23 00:16:45;;;;;;;0.00;0.00;;;;;;;4.66;81.64;101357.13;4937957;29;20024;-72
2022/02/23 00:19:10;;;;;;;0.00;0.00;;;;;;;4.63;81.96;101352.94;4944941;28;20020;-74
2022/02/23 00:21:36;;;;;;;0.00;0.00;;;;;;;4.63;81.52;101352.94;4933104;29;20043;-74
2022/02/23 00:24:02;;;;;;;0.00;0.00;;;;;;;4.63;82.13;101350.22;4938947;29;20024;-75
2022/02/23 00:26:34;;;;;;;0.00;0.00;;;;;;;4.58;81.55;101349.97;4934841;29;20501;-74
2022/02/23 00:29:03;;;;;;;0.00;0.00;;;;;;;4.62;81.40;101359.38;4936733;29;20390;-71
2022/02/23 00:31:29;;;;;;;0.00;0.00;;;;;;;4.60;81.44;101358.75;4950495;28;20031;-71
2022/02/23 00:33:54;;;;;;;0.00;0.00;;;;;;;4.60;81.68;101361.47;4935535;29;20055;-71
2022/02/23 00:36:20;;;;;;;0.00;0.00;;;;;;;4.61;81.60;101359.59;4924600;29;20470;-71
2022/02/23 00:38:45;;;;;;;0.00;0.00;;;;;;;4.59;81.43;101357.09;4939258;29;20019;-71
2022/02/23 00:41:10;;;;;;;0.00;0.00;;;;;;;4.58;81.11;101360.00;4933787;29;20027;-70
2022/02/23 00:43:36;;;;;;;0.00;0.00;;;;;;;4.54;81.49;101344.16;4937193;29;20079;-69
2022/02/23 00:46:02;;;;;;;0.00;0.00;;;;;;;4.53;81.23;101350.59;4919657;29;20063;-71
2022/02/23 00:48:28;;;;;;;0.00;0.00;;;;;;;4.49;81.26;101351.22;4935809;29;20040;-71
2022/02/23 00:50:53;;;;;;;0.00;0.00;;;;;;;4.48;80.93;101352.25;4941451;29;20407;-69
2022/02/23 00:53:19;;;;;;;0.00;0.00;;;;;;;4.46;81.40;101357.03;4946469;28;20032;-75
2022/02/23 00:55:44;;;;;;;0.00;0.00;;;;;;;4.43;81.17;101343.91;4931949;29;20050;-71
2022/02/23 00:58:10;;;;;;;0.00;0.00;;;;;;;4.40;81.36;101352.44;4921374;29;20032;-73
2022/02/23 01:00:36;;;;;;;0.00;0.00;;;;;;;4.35;81.32;101345.75;4917293;29;20482;-71
2022/02/23 01:03:01;;;;;;;0.00;0.00;;;;;;;4.33;82.00;101341.56;4917411;29;20448;-73
2022/02/23 01:05:27;;;;;;;0.00;0.00;;;;;;;4.29;81.42;101341.16;4893858;29;20036;-74
2022/02/23 01:07:52;;;;;;;0.00;0.00;;;;;;;4.25;81.92;101345.28;4914203;29;20034;-73
2022/02/23 01:10:19;;;;;;;0.00;0.00;;;;;;;4.20;82.54;101345.03;4894952;29;20024;-71
2022/02/23 01:12:45;;;;;;;0.00;0.00;;;;;;;4.18;82.84;101337.13;4917044;29;20040;-71
2022/02/23 01:15:11;;;;;;;0.00;0.00;;;;;;;4.17;82.19;101348.16;4914218;29;20028;-71
2022/02/23 01:17:38;;;;;;;0.00;0.00;;;;;;;4.18;82.18;101349.84;4898713;29;20395;-73
2022/02/23 01:20:05;;;;;;;0.00;0.00;;;;;;;4.13;82.30;101341.47;4910606;29;20043;-70
2022/02/23 01:22:30;;;;;;;0.00;0.00;;;;;;;4.17;82.53;101337.34;4916247;29;20032;-74
2022/02/23 01:24:56;;;;;;;0.00;0.00;;;;;;;4.12;83.03;101329.81;4918215;29;20112;-71
2022/02/23 01:27:21;;;;;;;0.00;0.00;;;;;;;4.11;82.93;101327.31;4897997;29;20028;-72
2022/02/23 01:29:47;;;;;;;0.00;0.00;;;;;;;4.04;82.65;101331.84;4909936;29;20390;-69
2022/02/23 01:32:12;;;;;;;0.00;0.00;;;;;;;4.01;82.85;101327.66;4914200;29;20131;-70
2022/02/23 01:34:51;;;;;;;0.00;0.00;;;;;;;3.99;82.92;101327.06;4905649;29;20028;-72
2022/02/23 01:37:16;;;;;;;0.00;0.00;;;;;;;3.93;83.61;101320.56;4898646;29;20028;-73
2022/02/23 01:39:42;;;;;;;0.00;0.00;;;;;;;3.97;83.27;101331.81;4904073;29;20475;-71
2022/02/23 01:42:08;;;;;;;0.00;0.00;;;;;;;3.95;83.47;101332.00;4910777;29;20079;-72
2022/02/23 01:44:34;;;;;;;0.00;0.00;;;;;;;3.90;84.13;101331.78;4907398;29;20031;-73
2022/02/23 01:46:59;;;;;;;0.00;0.00;;;;;;;3.86;83.72;101327.81;4901970;29;20070;-73
2022/02/23 01:49:25;;;;;;;0.00;0.00;;;;;;;3.81;84.21;101327.56;4923727;29;20110;-72
2022/02/23 01:51:51;;;;;;;0.00;0.00;;;;;;;3.82;84.77;101334.66;4903488;29;20038;-72
2022/02/23 01:54:17;;;;;;;0.00;0.00;;;;;;;3.83;85.16;101325.50;4902899;29;20028;-71
2022/02/23 01:56:42;;;;;;;0.00;0.00;;;;;;;3.84;84.98;101332.56;4954404;28;20054;-72
2022/02/23 01:59:17;;;;;;;0.00;0.00;;;;;;;3.82;85.55;101323.81;4952148;29;20027;-74
2022/02/23 02:01:42;;;;;;;0.00;0.00;;;;;;;3.79;85.04;101324.22;4932658;29;20083;-73
2022/02/23 02:04:08;;;;;;;0.00;0.00;;;;;;;3.82;85.27;101331.94;4908341;29;20032;-71
2022/02/23 02:06:33;;;;;;;0.00;0.00;;;;;;;3.84;85.29;101327.16;4903930;29;20383;-71
2022/02/23 02:08:59;;;;;;;0.00;0.00;;;;;;;3.81;85.27;101316.72;4936370;29;20067;-70
2022/02/23 02:11:24;;;;;;;0.00;0.00;;;;;;;3.85;85.67;101315.31;4920704;29;20032;-69
2022/02/23 02:13:50;;;;;;;0.00;0.00;;;;;;;3.85;85.85;101312.59;4956060;29;20622;-70
2022/02/23 02:16:15;;;;;;;0.00;0.00;;;;;;;3.86;86.45;101319.69;4947083;29;20109;-71
2022/02/23 02:18:40;;;;;;;0.00;0.00;;;;;;;3.93;86.84;101325.97;4949852;29;20054;-69
2022/02/23 02:21:06;;;;;;;0.00;0.00;;;;;;;3.97;86.70;101324.53;4943150;29;20032;-70
2022/02/23 02:23:32;;;;;;;0.00;0.00;;;;;;;3.96;86.29;101313.94;4952220;28;20115;-71
2022/02/23 02:25:57;;;;;;;0.00;0.00;;;;;;;3.92;85.73;101308.06;4904780;29;20032;-70
2022/02/23 02:28:23;;;;;;;0.00;0.00;;;;;;;3.83;86.30;101298.44;4942727;29;20434;-72
2022/02/23 02:30:48;;;;;;;0.00;0.00;;;;;;;3.83;87.09;101310.09;4945588;28;20047;-71
2022/02/23 02:33:14;;;;;;;0.00;0.00;;;;;;;3.87;86.85;101315.97;4941425;29;20027;-73
2022/02/23 02:35:41;;;;;;;0.00;0.00;;;;;;;3.87;86.19;101310.53;4936870;29;20074;-71
2022/02/23 02:38:07;;;;;;;2.47;2.10;;;;;;;3.83;86.90;101295.75;4935212;29;20126;-75
2022/02/23 02:40:35;;;;;;;0.00;0.00;;;;;;;3.82;86.59;101299.47;4933062;29;20063;-74
2022/02/23 02:43:07;;;;;;;0.85;0.85;;;;;;;3.83;86.90;101298.44;4917504;29;20039;-74
2022/02/23 02:45:32;;;;;;;0.00;0.00;;;;;;;3.79;86.56;101295.28;4941901;29;20039;-72
2022/02/23 02:47:58;;;;;;;0.00;0.00;;;;;;;3.78;86.93;101292.78;4932719;29;20122;-74
2022/02/23 02:50:24;;;;;;;0.00;0.00;;;;;;;3.74;86.33;101291.50;4925837;28;20028;-74
2022/02/23 02:52:49;;;;;;;0.00;0.00;;;;;;;3.70;87.04;101282.16;4944315;29;20028;-75
2022/02/23 02:55:15;;;;;;;0.00;0.00;;;;;;;3.67;86.72;101277.97;4933596;29;20087;-74
2022/02/23 02:57:41;;;;;;;0.00;0.00;;;;;;;3.63;86.92;101272.09;4936328;29;20128;-74
2022/02/23 03:00:08;;;;;;;0.00;0.00;;;;;;;3.63;86.26;101277.50;4921862;29;20042;-74
2022/02/23 03:02:34;;;;;;;0.60;0.60;;;;;;;3.60;86.65;101275.19;4949672;28;20024;-73
2022/02/23 03:05:00;;;;;;;0.00;0.00;;;;;;;3.59;86.57;101276.25;4949257;28;20038;-73
2022/02/23 03:07:26;;;;;;;0.00;0.00;;;;;;;3.60;86.64;101280.63;4931436;29;20035;-73
2022/02/23 03:09:51;;;;;;;0.00;0.00;;;;;;;3.58;86.19;101271.88;4938251;29;20028;-73
2022/02/23 03:12:19;;;;;;;0.00;0.00;;;;;;;3.54;86.33;101281.41;4932533;29;20023;-74
2022/02/23 03:14:45;;;;;;;0.00;0.00;;;;;;;3.52;86.37;101297.00;4939275;29;20111;-74
2022/02/23 03:17:11;;;;;;;0.00;0.00;;;;;;;3.53;86.57;101287.84;4945136;29;20426;-74
2022/02/23 03:19:36;;;;;;;0.00;0.00;;;;;;;3.52;87.00;101280.78;4931490;29;20056;-75
2022/02/23 03:22:02;;;;;;;0.00;0.00;;;;;;;3.48;86.97;101274.91;4936944;29;20031;-73
2022/02/23 03:24:27;;;;;;;0.00;0.00;;;;;;;3.47;86.21;101283.22;4931470;29;20040;-73
2022/02/23 03:26:53;;;;;;;0.00;0.00;;;;;;;3.45;86.24;101296.13;4936169;29;20151;-76
2022/02/23 03:29:18;;;;;;;0.00;0.00;;;;;;;3.41;86.38;101290.25;4939999;29;20046;-75
2022/02/23 03:31:44;;;;;;;0.00;0.00;;;;;;;3.39;86.70;101286.09;4950439;28;20035;-74
2022/02/23 03:34:09;;;;;;;0.00;0.00;;;;;;;3.38;86.48;101289.84;4939056;29;20123;-74
2022/02/23 03:36:35;;;;;;;0.00;0.00;;;;;;;3.39;86.68;101294.19;4951925;28;20031;-74
2022/02/23 03:39:00;;;;;;;0.00;0.00;;;;;;;3.36;86.18;101297.28;4939044;29;20034;-74
2022/02/23 03:41:26;;;;;;;0.00;0.00;;;;;;;3.35;86.34;101290.25;4930334;29;20114;-73
2022/02/23 03:43:51;;;;;;;0.00;0.00;;;;;;;3.32;86.15;101297.69;4939327;29;20045;-74
2022/02/23 03:46:17;;;;;;;0.00;0.00;;;;;;;3.32;86.26;101297.69;4936563;29;20028;-75
2022/02/23 03:48:43;;;;;;;0.00;0.00;;;;;;;3.31;85.91;101287.06;4949508;28;20036;-74
2022/02/23 03:51:09;;;;;;;0.00;0.00;;;;;;;3.30;85.65;101272.72;4937639;29;20059;-73
2022/02/23 03:53:35;;;;;;;0.00;0.00;;;;;;;3.29;86.34;101281.03;4937878;29;20187;-74
2022/02/23 03:56:01;;;;;;;0.00;0.00;;;;;;;3.26;85.70;101287.66;4936286;29;20130;-73
2022/02/23 03:58:27;;;;;;;0.00;0.00;;;;;;;3.25;85.86;101296.81;4921935;29;20036;-74
2022/02/23 04:00:53;;;;;;;0.00;0.00;;;;;;;3.20;86.12;101288.47;4935839;29;20036;-74
2022/02/23 04:03:18;;;;;;;0.00;0.00;;;;;;;3.20;85.94;101280.34;4940855;29;20058;-75
2022/02/23 04:05:44;;;;;;;0.00;0.00;;;;;;;3.18;86.02;101268.06;4937190;29;20036;-73
2022/02/23 04:08:10;;;;;;;0.00;0.00;;;;;;;3.17;85.93;101269.94;4934500;29;20039;-73
2022/02/23 04:10:36;;;;;;;0.00;0.00;;;;;;;3.18;85.57;101273.47;4932097;29;20042;-74
2022/02/23 04:13:04;;;;;;;0.00;0.00;;;;;;;3.13;85.78;101271.34;4935959;29;20367;-73
2022/02/23 04:15:29;;;;;;;0.00;0.00;;;;;;;3.08;85.65;101268.38;4941588;29;20042;-74
2022/02/23 04:17:55;;;;;;;0.00;0.00;;;;;;;3.01;85.33;101279.16;4932017;29;20020;-74
2022/02/23 04:20:23;;;;;;;0.00;0.00;;;;;;;2.93;85.64;101276.59;4939509;29;20665;-74
2022/02/23 04:22:51;;;;;;;0.00;0.00;;;;;;;2.88;85.54;101260.97;4936222;29;20035;-73
2022/02/23 04:25:17;;;;;;;0.03;0.03;;;;;;;2.85;85.17;101257.78;4935017;29;20739;-74
2022/02/23 04:27:42;;;;;;;0.00;0.00;;;;;;;2.84;85.49;101272.34;4932219;29;20031;-75
2022/02/23 04:30:08;;;;;;;0.00;0.00;;;;;;;2.76;85.00;101276.00;4926466;29;20087;-74
2022/02/23 04:32:34;;;;;;;0.00;0.00;;;;;;;2.72;85.16;101263.94;4947652;28;20087;-74
2022/02/23 04:35:00;;;;;;;0.00;0.00;;;;;;;2.72;85.49;101258.53;4934600;29;20533;-72
2022/02/23 04:37:29;;;;;;;0.00;0.00;;;;;;;2.71;85.35;101263.09;4936587;29;20120;-73
2022/02/23 04:39:54;;;;;;;0.00;0.00;;;;;;;2.70;85.57;101265.97;4936083;29;20390;-73
2022/02/23 04:42:20;;;;;;;0.00;0.00;;;;;;;2.73;85.78;101265.59;4934245;29;20023;-74
2022/02/23 04:44:45;;;;;;;0.00;0.00;;;;;;;2.75;85.68;101263.56;4933448;29;20019;-72
2022/02/23 04:47:11;;;;;;;0.00;0.00;;;;;;;2.73;85.72;101254.78;4924040;29;20059;-74
2022/02/23 04:49:36;;;;;;;0.00;0.00;;;;;;;2.75;86.00;101258.16;4935108;29;20036;-71
2022/02/23 04:52:02;;;;;;;0.00;0.00;;;;;;;2.73;85.70;101257.50;4932069;29;20083;-72
2022/02/23 04:54:28;;;;;;;0.00;0.00;;;;;;;2.69;85.78;101269.72;4949566;28;20024;-71
2022/02/23 04:56:53;;;;;;;0.00;0.00;;;;;;;2.69;86.01;101267.03;4883736;29;20043;-72
2022/02/23 04:59:19;;;;;;;0.00;0.00;;;;;;;2.66;85.96;101256.59;4909672;29;20064;-72
2022/02/23 05:01:44;;;;;;;0.00;0.00;;;;;;;2.66;85.77;101256.59;4897712;29;20055;-75
2022/02/23 05:04:10;;;;;;;0.00;0.00;;;;;;;2.67;86.18;101266.38;4892272;29;20475;-73
2022/02/23 05:06:35;;;;;;;0.00;0.00;;;;;;;2.69;85.91;101275.13;4896286;29;20558;-74
2022/02/23 05:09:01;;;;;;;0.00;0.00;;;;;;;2.67;85.69;101263.66;4917467;29;20087;-73
2022/02/23 05:11:26;;;;;;;0.00;0.00;;;;;;;2.69;86.53;101256.22;4925923;29;20485;-72
2022/02/23 05:13:52;;;;;;;0.00;0.00;;;;;;;2.71;85.85;101265.78;4886725;29;20032;-72
2022/02/23 05:16:17;;;;;;;0.00;0.00;;;;;;;2.72;85.80;101269.34;4911717;29;20028;-73
2022/02/23 05:18:43;;;;;;;0.00;0.00;;;;;;;2.73;86.11;101268.28;4919771;29;20028;-74
2022/02/23 05:21:09;;;;;;;0.00;0.00;;;;;;;2.75;86.03;101268.94;4911805;29;20032;-73
2022/02/23 05:23:35;;;;;;;0.00;0.00;;;;;;;2.76;86.25;101265.19;4921539;29;20040;-74
2022/02/23 05:26:01;;;;;;;0.00;0.00;;;;;;;2.77;86.02;101266.88;4888877;29;20095;-72
2022/02/23 05:28:27;;;;;;;0.00;0.00;;;;;;;2.76;86.01;101270.59;4915129;29;20150;-72
2022/02/23 05:30:52;;;;;;;0.00;0.00;;;;;;;2.79;85.37;101267.53;4914903;29;20036;-73
2022/02/23 05:33:18;;;;;;;0.00;0.00;;;;;;;2.78;85.33;101260.47;4911495;29;20083;-74
2022/02/23 05:35:45;;;;;;;0.00;0.00;;;;;;;2.79;85.75;101259.44;4914644;29;20020;-71
2022/02/23 05:38:10;;;;;;;0.00;0.00;;;;;;;2.76;85.39;101262.50;4917852;29;20031;-74
2022/02/23 05:40:36;;;;;;;0.00;0.00;;;;;;;2.76;85.61;101259.81;4890934;29;20054;-72
2022/02/23 05:43:02;;;;;;;0.00;0.00;;;;;;;2.75;85.52;101264.38;4899432;29;20047;-73
2022/02/23 05:45:28;;;;;;;0.00;0.00;;;;;;;2.76;85.59;101257.94;4899495;29;20038;-74
2022/02/23 05:47:53;;;;;;;0.00;0.00;;;;;;;2.75;85.05;101263.56;4913388;29;20032;-73
2022/02/23 05:50:19;;;;;;;0.00;0.00;;;;;;;2.72;85.37;101253.97;4895068;29;20407;-75
2022/02/23 05:52:45;;;;;;;0.00;0.00;;;;;;;2.72;85.28;101263.94;4894567;29;20040;-72
2022/02/23 05:55:11;;;;;;;0.00;0.00;;;;;;;2.73;85.06;101265.59;4910811;29;20058;-72
2022/02/23 05:57:37;;;;;;;0.00;0.00;;;;;;;2.73;84.76;101252.09;4914196;29;20032;-72
2022/02/23 06:00:04;;;;;;;0.00;0.00;;;;;;;2.73;84.71;101252.09;4943117;28;20107;-74
2022/02/23 06:02:30;;;;;;;0.00;0.00;;;;;;;2.74;84.60;101261.88;4936511;29;20458;-74
2022/02/23 06:04:55;;;;;;;0.00;0.00;;;;;;;2.73;84.31;101260.19;4946571;28;20027;-72
2022/02/23 06:07:23;;;;;;;0.00;0.00;;;;;;;2.73;84.41;101257.50;4930146;29;20086;-73
2022/02/23 06:09:48;;;;;;;0.00;0.00;;;;;;;2.74;83.60;101248.38;4926581;29;20119;-72
2022/02/23 06:12:14;;;;;;;0.00;0.00;;;;;;;2.72;83.87;101250.44;4926778;29;20119;-73
2022/02/23 06:14:39;;;;;;;0.00;0.00;;;;;;;2.73;83.92;101243.97;4919735;29;20497;-73
2022/02/23 06:17:05;;;;;;;0.00;0.00;;;;;;;2.73;83.65;101239.44;4928602;29;20031;-72
2022/02/23 06:19:30;;;;;;;0.00;0.00;;;;;;;2.74;83.90;101245.66;4930715;29;20066;-74
2022/02/23 06:21:56;;;;;;;0.00;0.00;;;;;;;2.78;83.88;101236.16;4938412;28;20043;-73
2022/02/23 06:24:21;;;;;;;0.00;0.00;;;;;;;2.81;83.96;101241.16;4930436;29;20047;-73
2022/02/23 06:26:47;;;;;;;0.00;0.00;;;;;;;2.81;84.01;101235.75;4928858;29;20062;-74
2022/02/23 06:29:12;;;;;;;0.00;0.00;;;;;;;2.82;83.97;101236.56;4929467;29;20048;-74
2022/02/23 06:31:38;;;;;;;0.00;0.00;;;;;;;2.83;84.11;101239.09;4931402;29;20050;-72
2022/02/23 06:34:03;;;;;;;0.00;0.00;;;;;;;2.85;84.24;101237.03;4946163;28;20060;-74
2022/02/23 06:36:29;;;;;;;0.00;0.00;;;;;;;2.85;84.00;101230.78;4935347;29;20039;-73
2022/02/23 06:38:54;;;;;;;0.00;0.00;;;;;;;2.83;83.71;101233.69;4952328;28;20115;-72
2022/02/23 06:41:24;;;;;;;0.00;0.00;;;;;;;2.84;84.24;101234.53;4954335;29;20027;-71
2022/02/23 06:43:51;;;;;;;0.00;0.00;;;;;;;2.83;84.38;101228.28;4955880;28;20075;-72
2022/02/23 06:46:18;;;;;;;0.00;0.00;;;;;;;2.85;84.04;101222.69;4958144;29;20035;-72
2022/02/23 06:48:43;;;;;;;0.00;0.00;;;;;;;2.85;83.99;101234.34;4936935;29;20067;-74
2022/02/23 06:51:15;;;;;;;0.00;0.00;;;;;;;2.85;84.16;101231.63;4936994;29;20106;-74
2022/02/23 06:53:40;;;;;;;0.00;0.00;;;;;;;2.84;83.62;101229.13;4933931;29;20030;-74
2022/02/23 06:56:06;;;;;;;0.00;0.00;;;;;;;2.82;83.56;101232.03;4923908;29;20048;-74
2022/02/23 06:58:31;;;;;;;0.00;0.00;;;;;;;2.75;84.02;101228.44;4893337;29;20379;-73
2022/02/23 07:00:57;;;;;;;0.00;0.00;;;;;;;2.80;84.13;101239.47;4896333;29;20028;-73
2022/02/23 07:03:22;;;;;;;0.00;0.00;;;;;;;2.81;84.10;101235.75;4879176;29;20056;-74
2022/02/23 07:05:48;;;;;;;0.00;0.00;;;;;;;2.79;83.98;101235.13;4915095;29;20040;-75
2022/02/23 07:08:14;;;;;;;0.00;0.00;;;;;;;2.81;84.17;101235.75;4914810;29;20430;-73
2022/02/23 07:10:40;;;;;;;0.00;0.00;;;;;;;2.81;83.89;101246.56;4915344;29;20061;-73
2022/02/23 07:13:08;;;;;;;0.00;0.00;;;;;;;2.79;83.99;101232.44;4907246;29;20023;-72
2022/02/23 07:15:37;;;;;;;0.00;0.00;;;;;;;2.79;83.33;101232.44;4909843;29;20029;-72
2022/02/23 07:18:03;;;;;;;0.00;0.00;;;;;;;2.79;83.46;101240.53;4901049;29;20427;-73
2022/02/23 07:20:31;;;;;;;0.00;0.00;;;;;;;2.73;83.65;101233.19;4910005;29;20475;-75
2022/02/23 07:22:57;;;;;;;0.00;0.00;;;;;;;2.75;83.50;101236.53;4883170;29;20029;-72
2022/02/23 07:25:23;;;;;;;0.00;0.00;;;;;;;2.77;83.85;101234.47;4917762;29;20083;-75
2022/02/23 07:27:48;;;;;;;0.00;0.00;;;;;;;2.84;84.08;101240.75;4916451;29;20066;-73
2022/02/23 07:30:17;;;;;;;0.00;0.00;;;;;;;2.91;84.17;101230.03;4907755;29;20039;-72
2022/02/23 07:32:43;;;;;;;0.00;0.00;;;;;;;2.99;83.88;101235.28;4900844;29;20024;-72
2022/02/23 07:35:11;;;;;;;0.00;0.00;;;;;;;3.04;84.50;101229.28;4917622;29;20044;-74
2022/02/23 07:37:38;;;;;;;0.00;0.00;;;;;;;3.12;84.14;101221.03;4917299;29;20133;-74
2022/02/23 07:40:23;;;;;;;0.00;0.00;;;;;;;3.21;84.62;101235.22;4920874;29;20024;-75
2022/02/23 07:42:49;;;;;;;0.00;0.00;;;;;;;3.28;85.06;101233.41;4920679;29;20032;-73
2022/02/23 07:45:15;;;;;;;0.00;0.00;;;;;;;3.37;85.47;101234.09;4886157;29;20509;-73
2022/02/23 07:47:40;;;;;;;0.00;0.00;;;;;;;3.52;84.98;101231.25;4917281;29;20060;-70
2022/02/23 07:50:11;;;;;;;0.00;0.00;;;;;;;3.63;84.95;101230.69;4919698;29;20040;-71
2022/02/23 07:52:38;;;;;;;0.00;0.00;;;;;;;3.78;85.19;101231.41;4913250;29;20031;-72
2022/02/23 07:55:07;;;;;;;0.00;0.00;;;;;;;3.92;85.38;101221.47;4891133;29;20051;-73
2022/02/23 07:57:38;;;;;;;0.00;0.00;;;;;;;4.24;86.27;101229.91;4935992;29;20031;-72
2022/02/23 08:00:10;;;;;;;0.00;0.00;;;;;;;4.58;85.09;101225.38;4940009;29;20107;-73
2022/02/23 08:02:36;;;;;;;0.00;0.00;;;;;;;4.93;85.49;101222.47;4955274;28;20023;-73
2022/02/23 08:05:03;;;;;;;0.00;0.00;;;;;;;5.26;84.12;101227.03;4939157;29;20028;-75
2022/02/23 08:07:28;;;;;;;0.00;0.00;;;;;;;5.47;83.14;101230.53;4931819;29;20102;-74
2022/02/23 08:09:55;;;;;;;0.00;0.00;;;;;;;5.52;82.30;101225.31;4947652;28;20463;-74
2022/02/23 08:12:21;;;;;;;0.00;0.00;;;;;;;5.48;82.59;101219.47;4937069;29;20028;-74
2022/02/23 08:14:47;;;;;;;0.00;0.00;;;;;;;5.46;82.77;101227.00;4941632;29;20046;-73
2022/02/23 08:20:09;;;;;;;0.00;0.00;;;;;;;5.49;83.34;101226.59;4937314;29;20071;-72
2022/02/23 08:22:35;;;;;;;0.00;0.00;;;;;;;5.78;85.39;101224.38;4922432;29;20028;-74
2022/02/23 08:25:01;;;;;;;0.00;0.00;;;;;;;6.30;84.55;101232.53;4939605;29;20039;-73
2022/02/23 08:27:28;;;;;;;0.00;0.00;;;;;;;6.93;83.61;101236.28;4931272;29;20027;-73
2022/02/23 08:29:54;;;;;;;0.00;0.00;;;;;;;7.53;81.59;101230.25;4941275;29;20028;-73
2022/02/23 08:32:25;;;;;;;0.00;0.00;;;;;;;7.83;79.81;101224.91;4942410;29;20099;-74
2022/02/23 08:34:54;;;;;;;0.00;0.00;;;;;;;8.07;79.10;101213.28;4940226;29;20024;-72
2022/02/23 08:37:24;;;;;;;0.00;0.00;;;;;;;8.33;78.23;101214.81;4925073;29;20031;-72
2022/02/23 08:39:51;;;;;;;0.00;0.00;;;;;;;8.44;77.60;101205.00;4942925;29;20058;-73
2022/02/23 08:42:17;;;;;;;0.00;0.00;;;;;;;8.46;77.40;101203.75;4925646;29;20259;-74
2022/02/23 08:44:46;;;;;;;0.00;0.00;;;;;;;8.54;77.46;101210.75;4938973;29;20027;-73
2022/02/23 08:47:11;;;;;;;0.00;0.00;;;;;;;8.48;78.05;101204.34;4936916;29;20031;-73
2022/02/23 08:49:39;;;;;;;0.00;0.00;;;;;;;8.30;78.48;101196.22;4936973;29;20039;-73
2022/02/23 08:52:14;;;;;;;0.00;0.00;;;;;;;8.02;78.41;101194.94;4920475;29;20063;-72
2022/02/23 08:54:39;;;;;;;0.00;0.00;;;;;;;7.56;79.41;101186.25;4926623;29;21340;-73
2022/02/23 08:57:05;;;;;;;0.00;0.00;;;;;;;7.36;80.37;101196.53;4937618;29;20519;-73
2022/02/23 08:59:31;;;;;;;0.00;0.00;;;;;;;7.18;81.77;101189.19;4919808;29;20020;-72
2022/02/23 09:02:04;;;;;;;0.00;0.00;;;;;;;7.14;82.10;101195.09;4927700;29;20059;-73
2022/02/23 09:04:37;;;;;;;37.15;22.15;;;;;;;7.08;82.33;101190.56;4934721;29;20435;-73
2022/02/23 09:07:03;;;;;;;1.17;1.15;;;;;;;6.92;83.15;101175.63;4935605;29;20570;-72
2022/02/23 09:09:30;;;;;;;0.00;0.00;;;;;;;6.84;84.11;101183.25;4936176;29;20110;-73
2022/02/23 09:11:56;;;;;;;0.10;0.10;;;;;;;6.86;84.53;101181.13;4934058;29;20417;-73
2022/02/23 09:14:22;;;;;;;0.00;0.00;;;;;;;6.82;84.81;101162.53;4946126;28;20041;-74
2022/02/23 09:16:50;;;;;;;0.00;0.00;;;;;;;6.96;84.75;101165.97;4935773;29;20034;-74
2022/02/23 09:19:18;;;;;;;0.45;0.17;;;;;;;7.02;84.27;101166.13;4935852;28;20048;-74
2022/02/23 09:21:43;;;;;;;0.00;0.00;;;;;;;6.97;84.39;101161.38;4920166;29;20058;-73
2022/02/23 09:24:09;;;;;;;0.00;0.00;;;;;;;7.10;85.05;101161.22;4927812;29;20032;-74
2022/02/23 09:26:37;;;;;;;0.00;0.00;;;;;;;7.16;84.93;101138.56;4946221;29;20034;-73
2022/02/23 09:29:12;;;;;;;0.00;0.00;;;;;;;7.40;84.82;101149.59;4937205;29;20027;-73
2022/02/23 09:31:38;;;;;;;0.00;0.00;;;;;;;7.59;84.85;101150.41;4934784;29;20454;-73
2022/02/23 09:34:03;;;;;;;0.00;0.00;;;;;;;7.72;84.28;101143.16;4927555;29;20126;-73
2022/02/23 09:36:29;;;;;;;0.00;0.00;;;;;;;7.87;84.19;101143.59;4942663;28;20038;-74
2022/02/23 09:38:54;;;;;;;0.00;0.00;;;;;;;7.97;83.86;101143.03;4924521;29;20039;-74
2022/02/23 09:41:24;;;;;;;0.00;0.00;;;;;;;7.90;83.88;101124.06;4951114;29;20034;-71
2022/02/23 10:10:05;;;;;;;0.00;0.00;;;;;;;8.87;80.72;101131.13;4699071;30;20048;-73
2022/02/23 10:57:54;;;;;;;;;;;;;;;;;;;;;
2022/02/23 11:00:51;;;;;;;;;;;;;;;;;;;;;
2022/02/23 11:03:20;;;;;;;0.00;0.00;;;;;;;8.74;78.30;101052.28;4836687;29;20438;-73
2022/02/23 11:06:30;;;;;;;;;;;;;;;;;;;;;
2022/02/23 11:09:55;;;;;;;;;;;;;;;;;;;;;
2022/02/23 11:27:21;;;;;;;;;;;;;;;;;;;;;
2022/02/23 11:34:46;;;;;;;;;;;;;;;;;;;;;
2022/02/23 11:40:56;;;;;;;;;;;;;;;;;;;;;
2022/02/23 11:50:39;;;;;;;0.50;0.50;;;;;;;12.95;55.19;100965.91;5114662;23;20047;-75
2022/02/23 11:54:09;;;;;;;0.00;0.00;;;;;;;12.98;55.98;100970.88;4940464;28;20031;-76
2022/02/23 12:01:03;;;;;;;0.00;0.00;;;;;;;12.59;55.96;100968.50;4815834;29;20034;-73
2022/02/23 12:04:24;;;;;;;;;;;;;;;;;;;;;
2022/02/23 12:17:59;;;;;;;;;;;;;;;;;;;;;
2022/02/23 12:21:14;;;;;;;;;;;;;;;;;;;;;
2022/02/23 12:24:16;;;;;;;0.00;0.00;;;;;;;11.88;51.12;100920.31;4788265;29;20047;-74
2022/02/23 12:27:44;;;;;;;0.17;0.17;;;;;;;11.65;50.67;100921.47;4771573;30;20035;-73
2022/02/23 12:31:11;;;;;;;;;;;;;;;;;;;;;
2022/02/23 12:33:40;;;;;;;0.28;0.28;;;;;;;11.33;52.39;100920.38;4722893;30;20060;-76
2022/02/23 12:36:25;;;;;;;0.20;0.20;;;;;;;11.16;52.63;100931.44;4832837;29;20388;-76
2022/02/23 12:39:39;;;;;;;0.00;0.00;;;;;;;11.20;53.36;100920.81;4898088;29;20036;-76
2022/02/23 12:42:55;;;;;;;;;;;;;;;;;;;;;
2022/02/23 12:45:32;;;;;;;0.00;0.00;;;;;;;11.29;53.84;100913.78;4954520;28;20091;-75
2022/02/23 12:48:31;;;;;;;0.00;0.00;;;;;;;11.18;54.13;100885.50;4950661;29;20364;-77
2022/02/23 12:51:29;;;;;;;0.00;0.00;;;;;;;11.38;54.18;100894.16;4950107;28;20099;-74
2022/02/23 12:53:58;;;;;;;0.00;0.00;;;;;;;11.51;54.90;100878.09;4927601;29;20687;-73
2022/02/23 12:56:48;;;;;;;0.00;0.00;;;;;;;11.82;55.19;100883.00;4951507;28;20628;-73
2022/02/23 12:59:19;;;;;;;0.00;0.00;;;;;;;11.94;54.05;100869.94;4936418;29;20028;-73
2022/02/23 13:02:03;;;;;;;;;;;;;;;;;;;;;
2022/02/23 13:04:53;;;;;;;0.00;0.00;;;;;;;12.28;54.22;100877.00;4933857;29;20147;-73
2022/02/23 13:07:37;;;;;;;;;;;;;;;;;;;;;
2022/02/23 13:10:03;;;;;;;0.00;0.00;;;;;;;13.42;52.45;100846.03;4939761;29;20024;-70
2022/02/23 13:12:29;;;;;;;0.00;0.00;;;;;;;13.98;50.67;100845.13;4932556;29;20127;-70
2022/02/23 13:15:05;;;;;;;0.20;0.20;;;;;;;14.04;50.18;100838.50;4935165;29;20130;-71
2022/02/23 13:17:54;;;;;;;;;;;;;;;;;;;;;
2022/02/23 13:20:29;;;;;;;0.00;0.00;;;;;;;13.47;49.51;100839.72;4939045;29;20135;-73
2022/02/23 13:23:05;;;;;;;0.00;0.00;;;;;;;13.79;49.20;100823.72;4943020;29;20028;-73
2022/02/23 13:25:31;;;;;;;0.00;0.00;;;;;;;14.33;47.35;100832.38;4939405;29;20032;-73
2022/02/23 13:28:01;;;;;;;0.00;0.00;;;;;;;14.43;46.28;100824.06;4954066;28;20039;-72
2022/02/23 13:30:26;;;;;;;0.00;0.00;;;;;;;14.47;46.32;100841.69;4955063;28;20040;-73
2022/02/23 13:32:58;;;;;;;0.00;0.00;;;;;;;15.12;46.03;100812.41;4950763;28;20271;-72
2022/02/23 13:35:24;;;;;;;0.00;0.00;;;;;;;15.63;44.62;100819.41;4942331;29;20031;-72
2022/02/23 13:38:00;;;;;;;;;;;;;;;;;;;;;
2022/02/23 13:40:26;;;;;;;1.88;0.35;;;;;;;16.33;43.07;100812.63;4938164;29;20102;-72
2022/02/23 13:43:29;;;;;;;1.17;1.08;;;;;;;16.77;42.37;100800.41;4940932;29;20043;-74
2022/02/23 13:45:47;;;;;;;3.38;0.17;;;;;;;16.87;41.40;100783.72;4925094;28;20119;-74
2022/02/23 13:52:38;;;;;;;;;;;;;;;;;;;;;
2022/02/23 14:29:08;;;;;;;0.00;0.00;;;;;;;12.48;53.70;100708.94;5991664;24;20479;-73
2022/02/23 14:31:42;;;;;;;0.00;0.00;;;;;;;12.45;53.44;100717.72;6193723;23;20487;-73
2022/02/23 14:34:36;;;;;;;0.47;0.38;;;;;;;12.32;53.69;100724.53;6170597;23;20033;-71
2022/02/23 14:37:36;;;;;;;0.00;0.00;;;;;;;12.00;53.28;100720.91;6169748;23;20013;-72
2022/02/23 14:40:14;;;;;;;0.00;0.00;;;;;;;11.93;54.73;100714.84;6196578;23;19997;-72
2022/02/23 14:43:04;;;;;;;0.00;0.00;;;;;;;11.96;53.93;100719.78;6196432;23;20008;-73
2022/02/23 15:03:40;;;;;;;0.00;0.00;;;;;;;10.26;59.58;100698.50;5933636;24;20032;-74